createdAt,value
2018-10-19T00:00:02.708Z,0
2018-10-19T00:05:03.435Z,0
2018-10-19T00:10:02.573Z,0
2018-10-19T00:15:03.268Z,0
2018-10-19T00:20:03.214Z,0
2018-10-19T00:25:02.881Z,0
2018-10-19T00:30:02.491Z,0
2018-10-19T00:35:03.466Z,0
2018-10-19T00:40:02.475Z,0
2018-10-19T00:45:03.236Z,0
2018-10-19T00:50:03.210Z,0
2018-10-19T00:55:02.740Z,0
2018-10-19T01:00:03.304Z,0
2018-10-19T01:05:03.015Z,0
2018-10-19T01:10:03.198Z,0
2018-10-19T01:15:03.026Z,0
2018-10-19T01:20:02.908Z,0
2018-10-19T01:25:02.487Z,0
2018-10-19T01:30:03.120Z,0
2018-10-19T01:35:02.980Z,0
2018-10-19T01:40:03.040Z,0
2018-10-19T01:45:02.787Z,0
2018-10-19T01:50:02.723Z,0
2018-10-19T01:55:03.327Z,0
2018-10-19T02:00:02.853Z,0
2018-10-19T02:05:02.756Z,0
2018-10-19T02:10:02.842Z,0
2018-10-19T02:15:03.481Z,0
2018-10-19T02:20:02.402Z,0
2018-10-19T02:25:03.027Z,0
2018-10-19T02:30:02.707Z,0
2018-10-19T02:35:03.533Z,0
2018-10-19T02:40:02.625Z,0
2018-10-19T02:45:03.429Z,0
2018-10-19T02:50:02.368Z,0
2018-10-19T02:55:03.037Z,0
2018-10-19T03:00:02.953Z,0
2018-10-19T03:05:02.705Z,0
2018-10-19T03:10:02.705Z,0
2018-10-19T03:15:03.509Z,0
2018-10-19T03:20:02.437Z,0
2018-10-19T03:25:03.017Z,0
2018-10-19T03:30:02.514Z,0
2018-10-19T03:35:03.400Z,0
2018-10-19T03:40:02.480Z,0
2018-10-19T03:45:03.282Z,0
2018-10-19T03:50:03.352Z,0
2018-10-19T03:55:02.964Z,0
2018-10-19T04:00:02.640Z,0
2018-10-19T04:05:03.440Z,0
2018-10-19T04:10:02.651Z,0
2018-10-19T04:15:03.463Z,0
2018-10-19T04:20:02.646Z,0
2018-10-19T04:25:03.278Z,0
2018-10-19T04:30:02.905Z,0
2018-10-19T04:35:02.662Z,0
2018-10-19T04:40:02.851Z,0
2018-10-19T04:45:02.750Z,0
2018-10-19T04:50:02.961Z,0
2018-10-19T04:55:02.595Z,0
2018-10-19T05:00:03.137Z,0
2018-10-19T05:05:02.848Z,0
2018-10-19T05:10:02.845Z,0
2018-10-19T05:15:02.485Z,0
2018-10-19T05:20:03.248Z,0
2018-10-19T05:25:03.413Z,0
2018-10-19T05:30:03.034Z,1
2018-10-19T05:35:02.782Z,2
2018-10-19T05:40:02.992Z,4
2018-10-19T05:45:02.615Z,10
2018-10-19T05:50:03.407Z,51
2018-10-19T05:55:03.332Z,80
2018-10-19T06:00:02.995Z,133
2018-10-19T06:05:02.755Z,203
2018-10-19T06:10:02.974Z,262
2018-10-19T06:15:02.678Z,339
2018-10-19T06:20:03.407Z,469
2018-10-19T06:25:02.446Z,600
2018-10-19T06:30:02.975Z,726
2018-10-19T06:35:02.704Z,880
2018-10-19T06:40:02.821Z,1000
2018-10-19T06:45:02.406Z,1000
2018-10-19T06:50:03.149Z,1000
2018-10-19T06:55:03.238Z,1000
2018-10-19T07:00:02.858Z,1000
2018-10-19T07:05:02.680Z,1000
2018-10-19T07:10:02.609Z,1000
2018-10-19T07:15:03.166Z,1000
2018-10-19T07:20:02.959Z,2000
2018-10-19T07:25:02.852Z,2000
2018-10-19T07:30:02.899Z,3000
2018-10-19T07:35:02.764Z,3000
2018-10-19T07:40:02.912Z,3000
2018-10-19T07:45:02.532Z,3000
2018-10-19T07:50:03.339Z,5000
2018-10-19T07:55:03.179Z,11000
2018-10-19T08:00:02.924Z,7000
2018-10-19T08:05:02.785Z,6000
2018-10-19T08:10:02.825Z,9000
2018-10-19T08:15:02.411Z,17000
2018-10-19T08:20:03.168Z,13000
2018-10-19T08:25:03.093Z,18000
2018-10-19T08:30:02.729Z,22000
2018-10-19T08:35:03.449Z,14000
2018-10-19T08:40:02.389Z,15000
2018-10-19T08:45:03.153Z,16000
2018-10-19T08:50:03.220Z,24000
2018-10-19T08:55:02.912Z,19000
2018-10-19T09:00:02.947Z,29000
2018-10-19T09:05:03.080Z,35000
2018-10-19T09:10:03.133Z,36000
2018-10-19T09:15:02.921Z,37000
2018-10-19T09:20:02.883Z,26000
2018-10-19T09:25:02.595Z,35000
2018-10-19T09:30:03.239Z,36000
2018-10-19T09:35:03.032Z,37000
2018-10-19T09:40:03.282Z,29000
2018-10-19T09:45:03.325Z,35000
2018-10-19T09:50:02.526Z,35000
2018-10-19T09:55:02.707Z,30000
2018-10-19T10:00:03.065Z,30000
2018-10-19T10:05:03.309Z,33000
2018-10-19T10:10:02.863Z,14000
2018-10-19T10:15:03.369Z,35000
2018-10-19T10:20:02.883Z,32000
2018-10-19T10:25:02.923Z,32000
2018-10-19T10:30:03.023Z,37000
2018-10-19T10:35:03.209Z,42000
2018-10-19T10:40:03.421Z,39000
2018-10-19T10:45:02.664Z,39000
2018-10-19T10:50:02.635Z,22000
2018-10-19T10:55:02.600Z,20000
2018-10-19T11:00:02.998Z,40000
2018-10-19T11:05:03.092Z,41000
2018-10-19T11:10:03.132Z,41000
2018-10-19T11:15:02.581Z,36000
2018-10-19T11:20:02.525Z,37000
2018-10-19T11:25:02.591Z,15000
2018-10-19T11:30:02.929Z,9000
2018-10-19T11:35:02.895Z,8000
2018-10-19T11:40:03.057Z,4000
2018-10-19T11:45:03.312Z,4000
2018-10-19T11:50:02.897Z,6000
2018-10-19T11:55:02.723Z,6000
2018-10-19T12:00:02.799Z,12000
2018-10-19T12:05:02.529Z,8000
2018-10-19T12:10:03.416Z,7000
2018-10-19T12:15:02.579Z,18000
2018-10-19T12:20:02.582Z,31000
2018-10-19T12:25:03.365Z,34000
2018-10-19T12:30:03.354Z,32000
2018-10-19T12:35:03.041Z,31000
2018-10-19T12:40:02.689Z,32000
2018-10-19T12:45:02.463Z,32000
2018-10-19T12:50:02.757Z,33000
2018-10-19T12:55:02.664Z,31000
2018-10-19T13:00:03.118Z,31000
2018-10-19T13:05:02.855Z,32000
2018-10-19T13:10:02.646Z,32000
2018-10-19T13:15:03.381Z,20000
2018-10-19T13:20:03.348Z,21000
2018-10-19T13:25:03.008Z,7000
2018-10-19T13:30:02.772Z,20000
2018-10-19T13:35:02.812Z,9000
2018-10-19T13:40:02.467Z,7000
2018-10-19T13:45:03.313Z,9000
2018-10-19T13:50:03.359Z,30000
2018-10-19T13:55:02.977Z,26000
2018-10-19T14:00:02.591Z,12000
2018-10-19T14:05:03.333Z,11000
2018-10-19T14:10:02.425Z,24000
2018-10-19T14:15:03.188Z,23000
2018-10-19T14:20:03.029Z,20000
2018-10-19T14:25:02.771Z,14000
2018-10-19T14:30:02.526Z,13000
2018-10-19T14:35:03.418Z,7000
2018-10-19T14:40:02.519Z,9000
2018-10-19T14:45:03.550Z,13000
2018-10-19T14:50:02.486Z,11000
2018-10-19T14:55:03.173Z,8000
2018-10-19T15:00:02.769Z,4000
2018-10-19T15:05:02.740Z,7000
2018-10-19T15:10:03.040Z,3000
2018-10-19T15:15:02.548Z,3000
2018-10-19T15:20:02.581Z,3000
2018-10-19T15:25:03.234Z,3000
2018-10-19T15:30:02.945Z,3000
2018-10-19T15:35:02.864Z,10000
2018-10-19T15:40:02.541Z,9000
2018-10-19T15:45:03.344Z,8000
2018-10-19T15:50:03.339Z,1000
2018-10-19T15:55:02.890Z,1000
2018-10-19T16:00:02.763Z,1000
2018-10-19T16:05:02.936Z,1000
2018-10-19T16:10:02.624Z,725
2018-10-19T16:15:03.453Z,638
2018-10-19T16:20:02.506Z,511
2018-10-19T16:25:03.109Z,382
2018-10-19T16:30:02.926Z,274
2018-10-19T16:35:03.057Z,143
2018-10-19T16:40:02.734Z,68
2018-10-19T16:45:03.565Z,64
2018-10-19T16:50:02.671Z,41
2018-10-19T16:55:03.310Z,24
2018-10-19T17:00:03.036Z,12
2018-10-19T17:05:03.327Z,4
2018-10-19T17:10:03.571Z,1
2018-10-19T17:15:03.340Z,0
2018-10-19T17:20:03.356Z,0
2018-10-19T17:25:03.055Z,0
2018-10-19T17:30:02.967Z,0
2018-10-19T17:35:03.191Z,0
2018-10-19T17:40:02.498Z,0
2018-10-19T17:45:03.247Z,0
2018-10-19T17:50:02.321Z,0
2018-10-19T17:55:02.973Z,0
2018-10-19T18:00:02.725Z,0
2018-10-19T18:05:02.950Z,0
2018-10-19T18:10:03.193Z,0
2018-10-19T18:15:02.884Z,0
2018-10-19T18:20:02.790Z,0
2018-10-19T18:25:03.381Z,0
2018-10-19T18:30:02.995Z,0
2018-10-19T18:35:02.870Z,0
2018-10-19T18:40:02.407Z,0
2018-10-19T18:45:03.091Z,0
2018-10-19T18:50:03.084Z,0
2018-10-19T18:55:03.270Z,0
2018-10-19T19:00:03.184Z,0
2018-10-19T19:05:02.939Z,0
2018-10-19T19:10:03.084Z,0
2018-10-19T19:15:02.997Z,0
2018-10-19T19:20:02.947Z,0
2018-10-19T19:25:03.029Z,0
2018-10-19T19:30:02.703Z,0
2018-10-19T19:35:02.618Z,0
2018-10-19T19:40:02.772Z,0
2018-10-19T19:45:02.470Z,0
2018-10-19T19:50:03.231Z,0
2018-10-19T19:55:02.429Z,0
2018-10-19T20:00:03.534Z,0
2018-10-19T20:05:03.336Z,0
2018-10-19T20:10:03.325Z,0
2018-10-19T20:15:03.015Z,0
2018-10-19T20:20:02.712Z,0
2018-10-19T20:25:02.847Z,0
2018-10-19T20:30:02.495Z,0
2018-10-19T20:35:03.356Z,0
2018-10-19T20:40:02.388Z,0
2018-10-19T20:45:03.152Z,0
2018-10-19T20:50:02.900Z,0
2018-10-19T20:55:02.940Z,0
2018-10-19T21:00:02.732Z,0
2018-10-19T21:05:02.579Z,0
2018-10-19T21:10:03.143Z,0
2018-10-19T21:15:02.919Z,0
2018-10-19T21:20:02.644Z,0
2018-10-19T21:25:02.857Z,0
2018-10-19T21:30:02.990Z,0
2018-10-19T21:35:03.435Z,0
2018-10-19T21:40:02.476Z,0
2018-10-19T21:45:03.071Z,0
2018-10-19T21:50:02.741Z,0
2018-10-19T21:55:02.833Z,0
2018-10-19T22:00:02.438Z,0
2018-10-19T22:05:03.017Z,0
2018-10-19T22:10:03.172Z,0
2018-10-19T22:15:02.625Z,0
2018-10-19T22:20:03.331Z,0
2018-10-19T22:25:02.970Z,0
2018-10-19T22:30:02.951Z,0
2018-10-19T22:35:02.714Z,0
2018-10-19T22:40:02.722Z,0
2018-10-19T22:45:03.324Z,0
2018-10-19T22:50:02.949Z,0
2018-10-19T22:55:02.677Z,0
2018-10-19T23:00:02.714Z,0
2018-10-19T23:05:03.215Z,0
2018-10-19T23:10:03.226Z,0
2018-10-19T23:15:02.934Z,0
2018-10-19T23:20:02.495Z,0
2018-10-19T23:25:03.619Z,0
2018-10-19T23:30:02.800Z,0
2018-10-19T23:35:02.655Z,0
2018-10-19T23:40:02.741Z,0
2018-10-19T23:45:03.296Z,0
2018-10-19T23:50:02.883Z,0
2018-10-19T23:55:02.657Z,0
